createdAt,value
2018-10-18T00:02:10.265Z,15.21
2018-10-18T00:04:39.787Z,15.21
2018-10-18T00:07:09.343Z,15.19
2018-10-18T00:09:38.846Z,15.19
2018-10-18T00:12:08.491Z,15.19
2018-10-18T00:14:37.991Z,15.20
2018-10-18T00:17:12.488Z,15.21
2018-10-18T00:19:42.019Z,15.20
2018-10-18T00:22:11.562Z,15.19
2018-10-18T00:24:41.088Z,15.14
2018-10-18T00:27:10.620Z,15.09
2018-10-18T00:29:40.182Z,15.03
2018-10-18T00:32:09.790Z,14.96
2018-10-18T00:34:39.242Z,14.92
2018-10-18T00:37:08.746Z,14.86
2018-10-18T00:39:38.274Z,14.80
2018-10-18T00:42:07.844Z,14.73
2018-10-18T00:44:37.327Z,14.68
2018-10-18T00:47:06.899Z,14.63
2018-10-18T00:49:36.544Z,14.56
2018-10-18T00:52:06.332Z,14.52
2018-10-18T00:54:35.891Z,14.47
2018-10-18T00:57:05.458Z,14.42
2018-10-18T00:59:35.013Z,14.35
2018-10-18T01:02:04.596Z,14.31
2018-10-18T01:04:34.111Z,14.27
2018-10-18T01:07:03.718Z,14.23
2018-10-18T01:09:33.239Z,14.19
2018-10-18T01:12:02.842Z,14.17
2018-10-18T01:14:32.366Z,14.14
2018-10-18T01:17:03.372Z,14.11
2018-10-18T01:19:36.975Z,14.08
2018-10-18T01:22:07.566Z,14.06
2018-10-18T01:24:37.634Z,14.02
2018-10-18T01:27:07.696Z,13.99
2018-10-18T01:29:37.242Z,13.96
2018-10-18T01:32:07.378Z,13.94
2018-10-18T01:34:36.887Z,13.92
2018-10-18T01:37:06.555Z,13.90
2018-10-18T01:39:36.047Z,13.88
2018-10-18T01:42:06.509Z,13.86
2018-10-18T01:44:36.033Z,13.83
2018-10-18T01:47:05.658Z,13.82
2018-10-18T01:49:35.172Z,13.79
2018-10-18T01:52:04.832Z,13.78
2018-10-18T01:54:34.390Z,13.77
2018-10-18T01:57:03.982Z,13.76
2018-10-18T01:59:33.511Z,13.74
2018-10-18T02:02:03.108Z,13.74
2018-10-18T02:04:32.647Z,13.73
2018-10-18T02:07:02.210Z,13.72
2018-10-18T02:09:31.742Z,13.71
2018-10-18T02:12:01.336Z,13.70
2018-10-18T02:14:30.864Z,13.69
2018-10-18T02:17:00.434Z,13.11
2018-10-18T02:19:29.947Z,13.63
2018-10-18T02:21:59.523Z,13.59
2018-10-18T02:24:29.060Z,13.56
2018-10-18T02:26:58.602Z,13.53
2018-10-18T02:29:28.094Z,13.51
2018-10-18T02:31:57.663Z,13.45
2018-10-18T02:34:27.186Z,13.43
2018-10-18T02:36:56.731Z,13.37
2018-10-18T02:39:26.302Z,13.34
2018-10-18T02:41:55.901Z,13.31
2018-10-18T02:44:25.448Z,13.29
2018-10-18T02:46:55.002Z,13.26
2018-10-18T02:49:24.539Z,13.24
2018-10-18T02:51:54.082Z,13.21
2018-10-18T02:54:23.622Z,13.18
2018-10-18T02:56:53.171Z,13.17
2018-10-18T02:59:22.674Z,13.14
2018-10-18T03:01:52.223Z,13.12
2018-10-18T03:04:21.724Z,13.10
2018-10-18T03:06:51.272Z,13.08
2018-10-18T03:09:20.775Z,13.07
2018-10-18T03:11:50.323Z,13.07
2018-10-18T03:14:19.823Z,13.05
2018-10-18T03:16:49.398Z,13.04
2018-10-18T03:19:18.977Z,13.02
2018-10-18T03:21:48.538Z,13.00
2018-10-18T03:24:18.137Z,12.99
2018-10-18T03:26:47.682Z,12.98
2018-10-18T03:29:17.227Z,12.96
2018-10-18T03:31:46.754Z,12.95
2018-10-18T03:34:16.294Z,12.93
2018-10-18T03:36:45.790Z,12.91
2018-10-18T03:39:15.319Z,12.90
2018-10-18T03:41:44.844Z,12.88
2018-10-18T03:44:14.383Z,12.86
2018-10-18T03:46:43.880Z,12.84
2018-10-18T03:49:13.407Z,12.82
2018-10-18T03:51:43.782Z,12.80
2018-10-18T03:54:13.347Z,12.79
2018-10-18T03:56:42.904Z,12.77
2018-10-18T03:59:12.426Z,12.77
2018-10-18T04:01:41.959Z,12.77
2018-10-18T04:04:11.499Z,12.76
2018-10-18T04:06:41.056Z,12.76
2018-10-18T04:09:11.194Z,12.76
2018-10-18T04:11:41.455Z,12.74
2018-10-18T04:14:10.955Z,12.73
2018-10-18T04:16:40.491Z,12.73
2018-10-18T04:19:10.042Z,12.72
2018-10-18T04:21:39.624Z,12.72
2018-10-18T04:24:09.170Z,12.72
2018-10-18T04:26:38.719Z,12.72
2018-10-18T04:29:08.215Z,12.71
2018-10-18T04:31:37.754Z,11.91
2018-10-18T04:34:07.357Z,12.72
2018-10-18T04:36:36.931Z,12.72
2018-10-18T04:39:09.190Z,12.72
2018-10-18T04:41:38.700Z,12.73
2018-10-18T04:44:08.308Z,12.75
2018-10-18T04:46:37.846Z,12.75
2018-10-18T04:49:07.423Z,12.76
2018-10-18T04:51:37.006Z,12.78
2018-10-18T04:54:06.621Z,12.82
2018-10-18T04:56:36.158Z,12.83
2018-10-18T04:59:05.844Z,12.85
2018-10-18T05:01:35.367Z,12.87
2018-10-18T05:04:05.164Z,12.88
2018-10-18T05:06:34.666Z,12.91
2018-10-18T05:09:05.757Z,12.93
2018-10-18T05:11:35.255Z,12.96
2018-10-18T05:14:04.980Z,13.00
2018-10-18T05:16:34.478Z,13.06
2018-10-18T05:19:04.229Z,13.12
2018-10-18T05:21:33.755Z,13.19
2018-10-18T05:24:03.511Z,13.24
2018-10-18T05:26:33.174Z,13.31
2018-10-18T05:29:02.879Z,13.39
2018-10-18T05:31:32.485Z,13.47
2018-10-18T05:34:01.964Z,13.56
2018-10-18T05:36:31.530Z,13.66
2018-10-18T05:39:01.264Z,13.78
2018-10-18T05:41:30.948Z,13.89
2018-10-18T05:44:00.510Z,14.01
2018-10-18T05:46:30.133Z,14.13
2018-10-18T05:48:59.696Z,14.25
2018-10-18T05:51:29.262Z,14.35
2018-10-18T05:53:58.995Z,14.48
2018-10-18T05:56:28.436Z,14.60
2018-10-18T05:58:58.763Z,14.68
2018-10-18T06:01:28.271Z,14.76
2018-10-18T06:03:57.831Z,14.80
2018-10-18T06:06:27.364Z,14.82
2018-10-18T06:08:56.999Z,13.91
2018-10-18T06:11:28.651Z,14.85
2018-10-18T06:13:58.307Z,14.85
2018-10-18T06:16:27.907Z,13.91
2018-10-18T06:18:57.480Z,14.86
2018-10-18T06:21:27.046Z,14.85
2018-10-18T06:23:56.561Z,14.87
2018-10-18T06:26:26.183Z,14.86
2018-10-18T06:28:55.779Z,14.89
2018-10-18T06:31:25.289Z,14.92
2018-10-18T06:33:54.834Z,14.94
2018-10-18T06:36:24.367Z,14.97
2018-10-18T06:38:53.898Z,15.00
2018-10-18T06:41:23.397Z,15.05
2018-10-18T06:43:52.935Z,15.11
2018-10-18T06:46:22.527Z,15.16
2018-10-18T06:48:52.079Z,15.22
2018-10-18T06:51:21.622Z,15.29
2018-10-18T06:53:51.169Z,15.37
2018-10-18T06:56:20.734Z,15.45
2018-10-18T06:58:50.298Z,15.51
2018-10-18T07:01:19.912Z,15.56
2018-10-18T07:03:49.478Z,15.60
2018-10-18T07:06:19.066Z,15.62
2018-10-18T07:08:48.707Z,15.64
2018-10-18T07:11:18.279Z,15.67
2018-10-18T07:13:47.791Z,15.72
2018-10-18T07:16:17.371Z,15.75
2018-10-18T07:18:46.959Z,15.77
2018-10-18T07:21:16.487Z,15.79
2018-10-18T07:23:46.044Z,15.81
2018-10-18T07:26:15.594Z,15.85
2018-10-18T07:28:45.194Z,15.89
2018-10-18T07:31:14.782Z,15.93
2018-10-18T07:33:44.303Z,15.96
2018-10-18T07:36:13.991Z,15.99
2018-10-18T07:38:43.444Z,16.01
2018-10-18T07:41:13.054Z,16.03
2018-10-18T07:43:42.579Z,16.04
2018-10-18T07:46:12.171Z,16.02
2018-10-18T07:48:41.710Z,16.07
2018-10-18T07:51:11.291Z,16.12
2018-10-18T07:53:40.843Z,16.17
2018-10-18T07:56:10.366Z,16.23
2018-10-18T07:58:39.890Z,16.32
2018-10-18T08:01:09.394Z,16.40
2018-10-18T08:03:38.926Z,16.51
2018-10-18T08:06:08.464Z,16.61
2018-10-18T08:08:38.031Z,16.72
2018-10-18T08:11:07.633Z,16.82
2018-10-18T08:13:37.159Z,16.86
2018-10-18T08:16:07.706Z,16.96
2018-10-18T08:18:37.244Z,17.04
2018-10-18T08:21:07.139Z,17.12
2018-10-18T08:23:36.683Z,17.21
2018-10-18T08:26:06.331Z,17.27
2018-10-18T08:28:35.871Z,17.31
2018-10-18T08:31:05.605Z,17.38
2018-10-18T08:33:35.170Z,17.46
2018-10-18T08:36:04.811Z,17.53
2018-10-18T08:38:34.327Z,17.63
2018-10-18T08:41:03.891Z,17.68
2018-10-18T08:43:33.466Z,17.61
2018-10-18T08:46:03.023Z,17.70
2018-10-18T08:48:32.624Z,17.69
2018-10-18T08:51:02.188Z,17.69
2018-10-18T08:53:31.731Z,17.70
2018-10-18T08:56:01.315Z,17.76
2018-10-18T08:58:30.851Z,17.72
2018-10-18T09:01:00.454Z,17.83
2018-10-18T09:03:29.951Z,17.90
2018-10-18T09:05:59.621Z,17.87
2018-10-18T09:08:29.074Z,17.87
2018-10-18T09:10:58.663Z,17.94
2018-10-18T09:13:28.166Z,17.98
2018-10-18T09:15:57.835Z,18.06
2018-10-18T09:18:27.338Z,18.12
2018-10-18T09:20:56.918Z,18.10
2018-10-18T09:23:26.442Z,18.20
2018-10-18T09:25:56.000Z,18.37
2018-10-18T09:28:25.477Z,18.38
2018-10-18T09:30:55.060Z,18.54
2018-10-18T09:33:24.547Z,18.63
2018-10-18T09:35:54.069Z,18.64
2018-10-18T09:38:23.754Z,18.70
2018-10-18T09:40:53.291Z,18.86
2018-10-18T09:43:22.879Z,19.05
2018-10-18T09:45:52.454Z,19.18
2018-10-18T09:48:22.010Z,19.25
2018-10-18T09:50:51.561Z,19.20
2018-10-18T09:53:21.192Z,19.27
2018-10-18T09:55:50.795Z,19.41
2018-10-18T09:58:20.394Z,19.67
2018-10-18T10:00:55.028Z,19.85
2018-10-18T10:03:24.537Z,20.01
2018-10-18T10:05:54.162Z,20.05
2018-10-18T10:08:23.730Z,19.99
2018-10-18T10:10:53.268Z,20.01
2018-10-18T10:13:22.958Z,19.95
2018-10-18T10:15:52.353Z,19.86
2018-10-18T10:18:21.979Z,19.96
2018-10-18T10:20:51.456Z,19.98
2018-10-18T10:23:21.008Z,20.02
2018-10-18T10:25:50.502Z,19.38
2018-10-18T10:28:19.998Z,20.14
2018-10-18T10:30:49.504Z,20.23
2018-10-18T10:33:19.100Z,20.35
2018-10-18T10:35:48.597Z,20.49
2018-10-18T10:38:18.152Z,20.42
2018-10-18T10:40:47.718Z,20.45
2018-10-18T10:43:17.271Z,20.48
2018-10-18T10:45:47.013Z,20.46
2018-10-18T10:48:16.633Z,20.59
2018-10-18T10:50:46.196Z,20.60
2018-10-18T10:53:15.732Z,20.79
2018-10-18T10:55:45.323Z,20.84
2018-10-18T10:58:15.179Z,20.99
2018-10-18T11:01:18.549Z,21.12
2018-10-18T11:03:48.624Z,21.18
2018-10-18T11:06:18.317Z,21.18
2018-10-18T11:08:47.791Z,21.21
2018-10-18T11:11:17.953Z,21.31
2018-10-18T11:13:47.503Z,21.44
2018-10-18T11:16:17.064Z,21.38
2018-10-18T11:18:46.632Z,21.47
2018-10-18T11:21:17.515Z,21.25
2018-10-18T11:23:47.031Z,21.41
2018-10-18T11:26:16.691Z,21.51
2018-10-18T11:28:46.189Z,21.54
2018-10-18T11:31:15.784Z,21.62
2018-10-18T11:33:45.308Z,21.61
2018-10-18T11:36:15.015Z,21.68
2018-10-18T11:38:44.749Z,21.65
2018-10-18T11:41:14.277Z,21.49
2018-10-18T11:43:43.855Z,21.50
2018-10-18T11:46:13.366Z,21.55
2018-10-18T11:48:42.936Z,21.47
2018-10-18T11:51:12.483Z,20.89
2018-10-18T11:53:42.053Z,21.51
2018-10-18T11:56:11.683Z,21.45
2018-10-18T11:58:41.167Z,21.55
2018-10-18T12:01:10.829Z,21.55
2018-10-18T12:03:40.342Z,21.67
2018-10-18T12:06:09.879Z,21.72
2018-10-18T12:08:39.371Z,21.80
2018-10-18T12:11:08.963Z,21.86
2018-10-18T12:13:38.460Z,21.83
2018-10-18T12:16:08.013Z,21.81
2018-10-18T12:18:37.583Z,21.88
2018-10-18T12:21:07.140Z,21.91
2018-10-18T12:23:36.666Z,21.78
2018-10-18T12:26:06.307Z,21.68
2018-10-18T12:28:35.862Z,21.66
2018-10-18T12:31:05.547Z,21.66
2018-10-18T12:33:35.099Z,21.71
2018-10-18T12:36:04.716Z,21.61
2018-10-18T12:38:34.268Z,21.58
2018-10-18T12:41:03.926Z,21.43
2018-10-18T12:43:33.419Z,21.37
2018-10-18T12:46:02.968Z,21.39
2018-10-18T12:48:32.596Z,21.51
2018-10-18T12:51:02.073Z,21.49
2018-10-18T12:53:31.622Z,21.52
2018-10-18T12:56:01.208Z,21.64
2018-10-18T12:58:30.746Z,21.64
2018-10-18T13:01:00.302Z,21.63
2018-10-18T13:03:29.891Z,21.73
2018-10-18T13:05:59.436Z,20.97
2018-10-18T13:08:28.999Z,21.73
2018-10-18T13:10:58.555Z,21.00
2018-10-18T13:13:28.087Z,21.77
2018-10-18T13:15:57.610Z,21.72
2018-10-18T13:18:27.114Z,21.64
2018-10-18T13:20:56.656Z,21.59
2018-10-18T13:23:26.226Z,21.60
2018-10-18T13:25:55.794Z,21.57
2018-10-18T13:28:25.326Z,21.52
2018-10-18T13:30:54.987Z,21.53
2018-10-18T13:33:24.553Z,21.47
2018-10-18T13:35:54.182Z,21.45
2018-10-18T13:38:23.697Z,21.46
2018-10-18T13:40:53.387Z,21.31
2018-10-18T13:43:22.822Z,21.37
2018-10-18T13:45:52.398Z,21.36
2018-10-18T13:48:21.935Z,21.33
2018-10-18T13:50:51.490Z,21.33
2018-10-18T13:53:20.994Z,21.30
2018-10-18T13:55:50.654Z,21.24
2018-10-18T13:58:20.170Z,21.17
2018-10-18T14:00:49.882Z,21.11
2018-10-18T14:03:19.538Z,20.99
2018-10-18T14:05:49.199Z,20.01
2018-10-18T14:08:18.832Z,20.85
2018-10-18T14:10:48.362Z,20.82
2018-10-18T14:13:17.939Z,20.82
2018-10-18T14:15:47.514Z,20.78
2018-10-18T14:18:17.046Z,20.74
2018-10-18T14:20:46.639Z,20.70
2018-10-18T14:23:16.326Z,20.68
2018-10-18T14:25:45.955Z,20.51
2018-10-18T14:28:15.605Z,20.50
2018-10-18T14:30:45.276Z,20.42
2018-10-18T14:33:14.798Z,20.41
2018-10-18T14:35:44.348Z,20.37
2018-10-18T14:38:13.956Z,20.31
2018-10-18T14:40:43.430Z,20.23
2018-10-18T14:43:12.989Z,20.22
2018-10-18T14:45:42.507Z,20.19
2018-10-18T14:48:12.067Z,20.15
2018-10-18T14:50:41.772Z,20.12
2018-10-18T14:53:11.408Z,20.03
2018-10-18T14:55:40.922Z,20.04
2018-10-18T14:58:10.480Z,19.98
2018-10-18T15:00:39.992Z,19.94
2018-10-18T15:03:09.535Z,19.90
2018-10-18T15:05:39.038Z,19.81
2018-10-18T15:08:08.664Z,19.75
2018-10-18T15:10:38.123Z,19.75
2018-10-18T15:13:07.677Z,19.73
2018-10-18T15:15:37.228Z,19.72
2018-10-18T15:18:06.786Z,19.65
2018-10-18T15:20:36.419Z,19.63
2018-10-18T15:23:05.980Z,19.62
2018-10-18T15:25:35.647Z,19.60
2018-10-18T15:28:05.078Z,19.60
2018-10-18T15:30:34.606Z,19.56
2018-10-18T15:33:04.151Z,19.54
2018-10-18T15:35:33.706Z,19.47
2018-10-18T15:38:03.365Z,19.48
2018-10-18T15:40:32.803Z,19.41
2018-10-18T15:43:02.299Z,19.38
2018-10-18T15:45:31.903Z,19.39
2018-10-18T15:48:01.439Z,19.35
2018-10-18T15:50:30.926Z,19.34
2018-10-18T15:53:00.573Z,19.31
2018-10-18T15:55:30.054Z,19.29
2018-10-18T15:57:59.703Z,19.23
2018-10-18T16:00:29.199Z,19.24
2018-10-18T16:02:58.779Z,19.23
2018-10-18T16:05:28.267Z,19.22
2018-10-18T16:07:57.794Z,19.19
2018-10-18T16:10:27.322Z,19.17
2018-10-18T16:12:56.850Z,19.15
2018-10-18T16:15:26.346Z,19.15
2018-10-18T16:17:55.956Z,19.11
2018-10-18T16:20:25.387Z,19.09
2018-10-18T16:22:54.912Z,19.09
2018-10-18T16:25:24.460Z,19.10
2018-10-18T16:27:54.027Z,19.13
2018-10-18T16:30:23.523Z,19.12
2018-10-18T16:32:53.052Z,19.10
2018-10-18T16:35:22.587Z,19.08
2018-10-18T16:37:52.610Z,19.07
2018-10-18T16:40:22.127Z,19.04
2018-10-18T16:42:51.652Z,19.00
2018-10-18T16:45:21.184Z,19.00
2018-10-18T16:47:50.852Z,18.97
2018-10-18T16:50:20.274Z,18.97
2018-10-18T16:52:49.822Z,18.98
2018-10-18T16:55:19.327Z,18.98
2018-10-18T16:57:48.861Z,18.95
2018-10-18T17:00:18.535Z,18.96
2018-10-18T17:02:47.971Z,18.95
2018-10-18T17:05:17.534Z,18.93
2018-10-18T17:07:47.083Z,18.92
2018-10-18T17:10:16.696Z,18.89
2018-10-18T17:12:46.170Z,18.88
2018-10-18T17:15:15.675Z,18.87
2018-10-18T17:17:45.273Z,18.84
2018-10-18T17:20:14.897Z,18.81
2018-10-18T17:22:44.396Z,18.81
2018-10-18T17:25:13.968Z,18.79
2018-10-18T17:27:43.558Z,18.78
2018-10-18T17:30:13.244Z,18.78
2018-10-18T17:32:42.679Z,18.75
2018-10-18T17:35:12.164Z,18.71
2018-10-18T17:37:41.659Z,18.68
2018-10-18T17:40:11.408Z,18.65
2018-10-18T17:42:40.890Z,18.62
2018-10-18T17:45:11.735Z,18.59
2018-10-18T17:47:41.739Z,18.57
2018-10-18T17:50:11.682Z,18.55
2018-10-18T17:52:41.179Z,18.54
2018-10-18T17:55:10.776Z,18.49
2018-10-18T17:57:40.271Z,18.47
2018-10-18T18:00:12.052Z,17.69
2018-10-18T18:02:41.959Z,18.38
2018-10-18T18:05:12.630Z,18.36
2018-10-18T18:07:42.248Z,18.32
2018-10-18T18:10:13.898Z,18.29
2018-10-18T18:12:43.465Z,18.28
2018-10-18T18:15:13.013Z,18.24
2018-10-18T18:17:42.508Z,18.22
2018-10-18T18:20:12.946Z,18.19
2018-10-18T18:22:42.520Z,18.16
2018-10-18T18:25:12.754Z,18.13
2018-10-18T18:27:42.254Z,18.10
2018-10-18T18:30:13.370Z,18.07
2018-10-18T18:32:43.106Z,18.04
2018-10-18T18:35:12.676Z,18.01
2018-10-18T18:37:42.232Z,17.99
2018-10-18T18:40:11.810Z,17.97
2018-10-18T18:42:41.582Z,17.96
2018-10-18T18:45:45.446Z,17.94
2018-10-18T18:48:15.014Z,17.93
2018-10-18T18:50:44.571Z,17.91
2018-10-18T18:53:14.194Z,17.90
2018-10-18T18:55:43.650Z,17.88
2018-10-18T18:58:13.182Z,17.84
2018-10-18T19:00:42.732Z,17.84
2018-10-18T19:03:12.258Z,17.83
2018-10-18T19:05:41.811Z,17.82
2018-10-18T19:08:11.354Z,17.81
2018-10-18T19:10:40.883Z,17.80
2018-10-18T19:13:10.540Z,17.79
2018-10-18T19:15:40.082Z,17.77
2018-10-18T19:18:09.630Z,17.76
2018-10-18T19:20:39.135Z,17.75
2018-10-18T19:23:08.699Z,17.73
2018-10-18T19:25:38.182Z,17.72
2018-10-18T19:28:07.727Z,17.72
2018-10-18T19:30:37.241Z,16.75
2018-10-18T19:33:06.776Z,17.71
2018-10-18T19:35:36.338Z,17.70
2018-10-18T19:38:05.922Z,17.68
2018-10-18T19:40:35.467Z,17.68
2018-10-18T19:43:05.114Z,17.65
2018-10-18T19:45:34.653Z,17.63
2018-10-18T19:48:04.268Z,17.63
2018-10-18T19:50:33.764Z,17.61
2018-10-18T19:53:03.393Z,17.60
2018-10-18T19:55:32.835Z,17.60
2018-10-18T19:58:02.421Z,17.59
2018-10-18T20:00:31.975Z,17.58
2018-10-18T20:03:01.558Z,17.58
2018-10-18T20:05:31.103Z,17.57
2018-10-18T20:08:00.623Z,17.55
2018-10-18T20:10:30.156Z,17.52
2018-10-18T20:12:59.766Z,17.50
2018-10-18T20:15:29.223Z,17.45
2018-10-18T20:17:58.802Z,17.42
2018-10-18T20:20:29.336Z,17.39
2018-10-18T20:22:58.971Z,17.37
2018-10-18T20:25:28.491Z,17.36
2018-10-18T20:27:58.095Z,17.33
2018-10-18T20:30:27.598Z,17.31
2018-10-18T20:32:57.155Z,17.28
2018-10-18T20:35:26.689Z,17.27
2018-10-18T20:37:56.207Z,16.30
2018-10-18T20:40:25.708Z,16.47
2018-10-18T20:42:55.235Z,17.21
2018-10-18T20:45:29.588Z,17.21
2018-10-18T20:47:59.271Z,17.20
2018-10-18T20:50:28.706Z,17.20
2018-10-18T20:52:58.258Z,17.21
2018-10-18T20:55:27.828Z,17.22
2018-10-18T20:57:57.400Z,17.22
2018-10-18T21:00:26.919Z,17.23
2018-10-18T21:02:56.568Z,17.24
2018-10-18T21:05:26.237Z,17.26
2018-10-18T21:07:55.795Z,17.26
2018-10-18T21:10:25.339Z,17.28
2018-10-18T21:12:54.839Z,17.28
2018-10-18T21:15:24.466Z,17.26
2018-10-18T21:17:53.966Z,17.26
2018-10-18T21:20:23.506Z,17.25
2018-10-18T21:22:53.087Z,17.25
2018-10-18T21:25:22.654Z,17.24
2018-10-18T21:27:52.215Z,17.21
2018-10-18T21:30:21.762Z,17.18
2018-10-18T21:32:51.313Z,17.13
2018-10-18T21:35:20.897Z,17.10
2018-10-18T21:37:50.398Z,17.08
2018-10-18T21:40:19.934Z,17.06
2018-10-18T21:42:49.478Z,17.04
2018-10-18T21:45:19.160Z,17.03
2018-10-18T21:47:48.790Z,17.02
2018-10-18T21:50:18.336Z,17.00
2018-10-18T21:52:47.846Z,17.00
2018-10-18T21:55:17.450Z,16.98
2018-10-18T21:57:46.935Z,16.96
2018-10-18T22:00:17.616Z,16.95
2018-10-18T22:02:47.562Z,16.94
2018-10-18T22:05:17.109Z,16.91
2018-10-18T22:07:46.630Z,16.90
2018-10-18T22:10:16.181Z,16.88
2018-10-18T22:12:45.670Z,16.84
2018-10-18T22:15:15.214Z,16.82
2018-10-18T22:17:44.738Z,16.79
2018-10-18T22:20:14.239Z,16.74
2018-10-18T22:22:43.792Z,16.70
2018-10-18T22:25:13.283Z,16.64
2018-10-18T22:27:42.819Z,16.62
2018-10-18T22:30:12.350Z,16.57
2018-10-18T22:32:41.911Z,16.53
2018-10-18T22:35:11.518Z,16.51
2018-10-18T22:37:41.046Z,16.48
2018-10-18T22:40:10.771Z,16.44
2018-10-18T22:42:40.376Z,16.43
2018-10-18T22:45:10.002Z,16.39
2018-10-18T22:47:39.495Z,16.37
2018-10-18T22:50:09.044Z,16.36
2018-10-18T22:52:38.611Z,16.33
2018-10-18T22:55:08.187Z,16.31
2018-10-18T22:57:37.678Z,16.29
2018-10-18T23:00:08.467Z,16.26
2018-10-18T23:02:38.006Z,16.24
2018-10-18T23:05:07.734Z,15.40
2018-10-18T23:07:37.290Z,16.21
2018-10-18T23:10:07.259Z,16.20
2018-10-18T23:12:36.774Z,16.18
2018-10-18T23:15:08.266Z,16.17
2018-10-18T23:17:37.834Z,16.16
2018-10-18T23:20:08.291Z,16.15
2018-10-18T23:22:37.815Z,15.26
2018-10-18T23:25:07.542Z,16.13
2018-10-18T23:27:37.142Z,16.10
2018-10-18T23:30:07.764Z,16.07
2018-10-18T23:32:37.324Z,16.06
2018-10-18T23:35:07.191Z,16.03
2018-10-18T23:37:36.795Z,16.01
2018-10-18T23:40:06.474Z,15.98
2018-10-18T23:42:35.974Z,15.97
2018-10-18T23:45:06.256Z,15.96
2018-10-18T23:47:35.802Z,15.93
2018-10-18T23:50:05.486Z,15.92
2018-10-18T23:52:35.295Z,15.89
2018-10-18T23:55:04.940Z,15.88
2018-10-18T23:57:34.500Z,15.86
